Duluth, MN (55811)

11:39 PM CST on January 23, 2017 (GMT -0600)
Miller Hill Subaru | | Change Station

Elev 1332 ft 46.82 °N, 92.18 °W | Updated 5 minutes ago

Light Snow
Light Snow
32.0 °F
Feels Like 32 °F
N
3.0
Wind Variable Wind from NNW
Gusts 4.0 mph

Today
High -- | Low -- °F
--% Chance of Precip.
Yesterday
High -- | Low -- °F
Precip. -- in
Pressure 29.80 in
Visibility 9.0 miles
Clouds Scattered Clouds 600 ft
Scattered Clouds 1100 ft
Overcast 1600 ft
Windchill 32 °F
Dew Point 31 °F
Humidity 95%
Rainfall 0.00 in
Snow Depth Not available.
7:42 AM 4:59 PM
Waning Crescent, 14% visible
SPECI KDLH 240529Z 34003KT 9SM -SN SCT006 SCT011 OVC016 00/M01 A2980 RMK AO2 P0000 T00001006
Pressure 29.80 in
Visibility 9.0 miles
Clouds Scattered Clouds 600 ft
Scattered Clouds 1100 ft
Overcast 1600 ft
Windchill 32 °F
Dew Point 31 °F
Humidity 95%
Rainfall 0.00 in
Snow Depth Not available.
7:42 AM 4:59 PM
Waning Crescent, 14% visible
SPECI KDLH 240529Z 34003KT 9SM -SN SCT006 SCT011 OVC016 00/M01 A2980 RMK AO2 P0000 T00001006

Get Your Daily Forecast Email!

Thanks for signing up!

Be on the lookout for a verification email in your inbox.

You'll start receiving the daily forecast at 8 AM.

×

10-Day Weather Forecast

Almanac

Astronomy

Jan. 23, 2017 Rise Set
Actual Time
Civil Twilight
Nautical Twilight
Astronomical Twilight
Moon
Length of Visible Light
Length of Day
Tomorrow will be .
, % of the Moon is Illuminated

Today's Extremes

State Highs State Lows

Community

WunderPhotos

Upload Photos

1,962,540 photos uploaded!

WunderBlog® & News

Nearby

Air Quality

  Air Quality AQ Index Pollutant
Not available.

Snow Depth

Station Depth Elevation

Earthquake Activity

City Distance Mag. Time & Date
Minimum magnitude displayed is 2.5.

Coastal Water Temperatures

Place Temperature

Stations

Nearby Weather Stations

Station Location Temp. Windchill Dew Point Humidity Wind Precip. Elev Updated Type
                   

Watches & Warnings

There are currently no watches in effect.